Decatur, Iowa
Current Conditions -  °F | °C
As of 5:53 PM on Friday 19 Dec 2014 (Local Time) from KLWD Reporting Station
Overcast Overcast  
Wind Chill: 25°   Ceiling: 600
Heat Index: 31°   Visibility: 7mi
Dew Point: 29°   Wind: 6mph
Humidity: 92%   Direction: 190°S
Pressure: 30.19"   Gusts: NA
Location:  40.74°N, 93.84°W
Report Text: KLWD 192353Z AUTO 19005KT 7SM OVC006 M01/M02 A3019 RMK AO2 SLP237 T10061017 10006 21006 56004
Loading
Personal Weather Stations






























Interactive Weather Map New forecast layout! Learn more

10-Day Weather Forecast

Advertisements
Track Severe Weather on mobile